Maasdam — PFRO — position and weather

sailwx.info

Track history (hours):
 
Tides and Currents Weather Stations Pressure Air Temp Water Temp Dewpoint Dewpoint Depression Visibility Wind Speed Wind Dir Waves Ship Positions

Maasdam

Operator: Holland America Line

Last reported at 2018-Apr-24 01:42 UTC. Time now 2018-Apr-24 23:00 UTC.
Position N 25°51' W 113°54'.

MMSI: 244958000.

Date/timePositionNaut miles runAvg speedWind from/ knotsBaromVisibWave heightAir tempDewpointWater temp
2018-Apr-24 01:42N 25°51' W 113°54'6418.0
2018-Apr-23 22:07N 26°43' W 114°36'1217.8
2018-Apr-23 21:27N 26°53' W 114°44'2217.9
2018-Apr-23 20:14N 27°10' W 114°59'9618.0
2018-Apr-23 14:56N 28°30' W 115°58'8818.8
2018-Apr-23 10:14N 29°54' W 116°28'418.7
2018-Apr-23 10:00N 29°58' W 116°29'1018.4
2018-Apr-23 09:28N 30°08' W 116°32'818.5
2018-Apr-23 09:00N 30°16' W 116°35'1118.4
2018-Apr-23 08:26N 30°26' W 116°39'1118.2
2018-Apr-23 07:50N 30°36' W 116°43'617.9
2018-Apr-23 07:30N 30°42' W 116°45'917.7
2018-Apr-23 07:00N 30°50' W 116°48'918.1
2018-Apr-23 06:30N 30°59' W 116°51'1618.3
2018-Apr-23 05:38N 31°14' W 116°57'418.2
2018-Apr-23 05:23N 31°19' W 116°59'918.4
2018-Apr-23 04:53N 31°27' W 117°02'718.2
2018-Apr-23 04:30N 31°34' W 117°04'918.4
2018-Apr-23 04:00N 31°43' W 117°07'1018.9
2018-Apr-23 03:30N 31°52' W 117°10'918.7
2018-Apr-23 03:00N 32°01' W 117°13'918.3
2018-Apr-23 02:30N 32°09' W 117°17'918.1
2018-Apr-23 02:00N 32°18' W 117°18'916.9
2018-Apr-23 01:30N 32°27' W 117°20'917.1
2018-Apr-23 00:58N 32°35' W 117°15'612.8
2018-Apr-23 00:30N 32°41' W 117°14'3 4.6
2018-Apr-22 23:45N 32°43' W 117°10'0 0.0
2018-Apr-22 23:27N 32°43' W 117°10'0 0.0
2018-Apr-22 22:27N 32°43' W 117°10'0 0.0
2018-Apr-22 18:24N 32°43' W 117°10'0 0.0
2018-Apr-22 18:00N 32°43' W 117°10'2 0.4
2018-Apr-22 13:04N 32°43' W 117°13'210.6
2018-Apr-22 12:52N 32°41' W 117°14'411.7
2018-Apr-22 12:30N 32°37' W 117°15'811.7
2018-Apr-22 11:51N 32°30' W 117°18'515.1
2018-Apr-22 11:30N 32°25' W 117°21'816.1
2018-Apr-22 11:00N 32°18' W 117°26'714.9
2018-Apr-22 10:30N 32°12' W 117°30'714.8
2018-Apr-22 10:00N 32°05' W 117°34'714.8
2018-Apr-22 09:30N 31°58' W 117°38'714.7
2018-Apr-22 09:00N 31°52' W 117°41'714.8
2018-Apr-22 08:30N 31°45' W 117°45'815.4
2018-Apr-22 08:00N 31°38' W 117°50'917.2
2018-Apr-22 07:30N 31°31' W 117°55'917.2
2018-Apr-22 07:00N 31°24' W 117°60'917.1
2018-Apr-22 06:30N 31°16' W 118°04'917.1
2018-Apr-22 06:00N 31°08' W 118°09'1716.7
2018-Apr-22 05:01N 30°54' W 118°18'016.3
2018-Apr-22 05:00N 30°53' W 118°18'3116.5
2018-Apr-22 03:09N 30°26' W 118°34'716.8
2018-Apr-22 02:42N 30°20' W 118°38'316.9
2018-Apr-22 02:30N 30°17' W 118°40'2616.6
2018-Apr-22 00:58N 29°54' W 118°54'  
Track history (hours):
 
Tides and Currents Weather Stations Pressure Air Temp Water Temp Dewpoint Dewpoint Depression Visibility Wind Speed Wind Dir Waves Ship Positions

Maasdam

Operator: Holland America Line

Last reported at 2018-Apr-24 01:42 UTC. Time now 2018-Apr-24 23:00 UTC.
Position N 25°51' W 113°54'.

MMSI: 244958000.

Date/timePositionNaut miles runAvg speedWind from/ knotsBaromVisibWave heightAir tempDewpointWater temp
2018-Apr-24 01:42N 25°51' W 113°54'6418.0
2018-Apr-23 22:07N 26°43' W 114°36'1217.8
2018-Apr-23 21:27N 26°53' W 114°44'2217.9
2018-Apr-23 20:14N 27°10' W 114°59'9618.0
2018-Apr-23 14:56N 28°30' W 115°58'8818.8
2018-Apr-23 10:14N 29°54' W 116°28'418.7
2018-Apr-23 10:00N 29°58' W 116°29'1018.4
2018-Apr-23 09:28N 30°08' W 116°32'818.5
2018-Apr-23 09:00N 30°16' W 116°35'1118.4
2018-Apr-23 08:26N 30°26' W 116°39'1118.2
2018-Apr-23 07:50N 30°36' W 116°43'617.9
2018-Apr-23 07:30N 30°42' W 116°45'917.7
2018-Apr-23 07:00N 30°50' W 116°48'918.1
2018-Apr-23 06:30N 30°59' W 116°51'1618.3
2018-Apr-23 05:38N 31°14' W 116°57'418.2
2018-Apr-23 05:23N 31°19' W 116°59'918.4
2018-Apr-23 04:53N 31°27' W 117°02'718.2
2018-Apr-23 04:30N 31°34' W 117°04'918.4
2018-Apr-23 04:00N 31°43' W 117°07'1018.9
2018-Apr-23 03:30N 31°52' W 117°10'918.7
2018-Apr-23 03:00N 32°01' W 117°13'918.3
2018-Apr-23 02:30N 32°09' W 117°17'918.1
2018-Apr-23 02:00N 32°18' W 117°18'916.9
2018-Apr-23 01:30N 32°27' W 117°20'917.1
2018-Apr-23 00:58N 32°35' W 117°15'612.8
2018-Apr-23 00:30N 32°41' W 117°14'3 4.6
2018-Apr-22 23:45N 32°43' W 117°10'0 0.0
2018-Apr-22 23:27N 32°43' W 117°10'0 0.0
2018-Apr-22 22:27N 32°43' W 117°10'0 0.0
2018-Apr-22 18:24N 32°43' W 117°10'0 0.0
2018-Apr-22 18:00N 32°43' W 117°10'2 0.4
2018-Apr-22 13:04N 32°43' W 117°13'210.6
2018-Apr-22 12:52N 32°41' W 117°14'411.7
2018-Apr-22 12:30N 32°37' W 117°15'811.7
2018-Apr-22 11:51N 32°30' W 117°18'515.1
2018-Apr-22 11:30N 32°25' W 117°21'816.1
2018-Apr-22 11:00N 32°18' W 117°26'714.9
2018-Apr-22 10:30N 32°12' W 117°30'714.8
2018-Apr-22 10:00N 32°05' W 117°34'714.8
2018-Apr-22 09:30N 31°58' W 117°38'714.7
2018-Apr-22 09:00N 31°52' W 117°41'714.8
2018-Apr-22 08:30N 31°45' W 117°45'815.4
2018-Apr-22 08:00N 31°38' W 117°50'917.2
2018-Apr-22 07:30N 31°31' W 117°55'917.2
2018-Apr-22 07:00N 31°24' W 117°60'917.1
2018-Apr-22 06:30N 31°16' W 118°04'917.1
2018-Apr-22 06:00N 31°08' W 118°09'1716.7
2018-Apr-22 05:01N 30°54' W 118°18'016.3
2018-Apr-22 05:00N 30°53' W 118°18'3116.5
2018-Apr-22 03:09N 30°26' W 118°34'716.8
2018-Apr-22 02:42N 30°20' W 118°38'316.9
2018-Apr-22 02:30N 30°17' W 118°40'2616.6
2018-Apr-22 00:58N 29°54' W 118°54'  

Dump ship's entire track history